CTN632 LDZA-LDPL
Flight info
| Callsign | CTN632 |
|---|---|
| Flight time | 0h 29m |
| Altitude | 20000 |
| Route | KOTOR1W/04 KOTOR M986 KULEN |
| Aircraft | A319/M-SDE3FGHIRWY/LB1 |
Departure
| Time | 2026-04-25 17:38 |
|---|---|
| Airport | Zagreb Franjo Tuđman International Airport (LDZA) |
Arrival
| Time | 2026-04-25 18:07 |
|---|---|
| Airport | Pula Airport (LDPL) |
| Time | Latitude | Longitude | Altitude | Speed | Heading |
|---|---|---|---|---|---|
| 2026-04-25 17:03 | 45.74179 | 16.07836 | 359 ft | 0 kts | 136° |
| 2026-04-25 17:23 | 45.74183 | 16.07831 | 363 ft | 4 kts | 137° |
| 2026-04-25 17:23 | 45.74204 | 16.07807 | 364 ft | 4 kts | 142° |
| 2026-04-25 17:24 | 45.74220 | 16.07786 | 364 ft | 4 kts | 140° |
| 2026-04-25 17:24 | 45.74242 | 16.07770 | 363 ft | 4 kts | 182° |
| 2026-04-25 17:24 | 45.74265 | 16.07782 | 363 ft | 4 kts | 225° |
| 2026-04-25 17:24 | 45.74279 | 16.07803 | 359 ft | 0 kts | 226° |
| 2026-04-25 17:31 | 45.74266 | 16.07782 | 362 ft | 6 kts | 227° |
| 2026-04-25 17:31 | 45.74228 | 16.07723 | 359 ft | 10 kts | 226° |
| 2026-04-25 17:31 | 45.74181 | 16.07650 | 363 ft | 10 kts | 227° |
| 2026-04-25 17:31 | 45.74130 | 16.07573 | 366 ft | 11 kts | 226° |
| 2026-04-25 17:32 | 45.74076 | 16.07492 | 359 ft | 12 kts | 226° |
| 2026-04-25 17:32 | 45.74077 | 16.07393 | 363 ft | 12 kts | 315° |
| 2026-04-25 17:32 | 45.74137 | 16.07312 | 359 ft | 12 kts | 317° |
| 2026-04-25 17:32 | 45.74200 | 16.07227 | 359 ft | 13 kts | 316° |
| 2026-04-25 17:33 | 45.74193 | 16.07119 | 360 ft | 13 kts | 226° |
| 2026-04-25 17:33 | 45.74132 | 16.07027 | 359 ft | 13 kts | 226° |
| 2026-04-25 17:33 | 45.74068 | 16.06930 | 359 ft | 14 kts | 226° |
| 2026-04-25 17:33 | 45.74001 | 16.06829 | 359 ft | 14 kts | 227° |
| 2026-04-25 17:34 | 45.73932 | 16.06723 | 359 ft | 15 kts | 226° |
| 2026-04-25 17:34 | 45.73860 | 16.06614 | 359 ft | 15 kts | 227° |
| 2026-04-25 17:34 | 45.73787 | 16.06502 | 359 ft | 16 kts | 226° |
| 2026-04-25 17:34 | 45.73755 | 16.06454 | 359 ft | 1 kts | 226° |
| 2026-04-25 17:35 | 45.73744 | 16.06433 | 359 ft | 7 kts | 238° |
| 2026-04-25 17:35 | 45.73761 | 16.06371 | 362 ft | 7 kts | 313° |
| 2026-04-25 17:35 | 45.73789 | 16.06333 | 360 ft | 1 kts | 316° |
| 2026-04-25 17:35 | 45.73789 | 16.06332 | 360 ft | 0 kts | 316° |
| 2026-04-25 17:36 | 45.73808 | 16.06307 | 360 ft | 9 kts | 317° |
| 2026-04-25 17:36 | 45.73848 | 16.06253 | 361 ft | 5 kts | 317° |
| 2026-04-25 17:36 | 45.73877 | 16.06248 | 364 ft | 4 kts | 24° |
| 2026-04-25 17:37 | 45.73893 | 16.06268 | 361 ft | 0 kts | 45° |
| 2026-04-25 17:37 | 45.73940 | 16.06338 | 363 ft | 41 kts | 47° |
| 2026-04-25 17:37 | 45.74324 | 16.06924 | 362 ft | 115 kts | 47° |
| 2026-04-25 17:37 | 45.74993 | 16.07948 | 404 ft | 163 kts | 48° |
| 2026-04-25 17:38 | 45.75774 | 16.09179 | 943 ft | 171 kts | 49° |
| 2026-04-25 17:38 | 45.76289 | 16.10094 | 1311 ft | 178 kts | 56° |
| 2026-04-25 17:38 | 45.76906 | 16.12332 | 2040 ft | 190 kts | 85° |
| 2026-04-25 17:38 | 45.76649 | 16.14223 | 2438 ft | 207 kts | 122° |
| 2026-04-25 17:39 | 45.75792 | 16.16021 | 2849 ft | 231 kts | 126° |
| 2026-04-25 17:39 | 45.75100 | 16.18194 | 3482 ft | 247 kts | 109° |
| 2026-04-25 17:39 | 45.74667 | 16.20612 | 4367 ft | 253 kts | 103° |
| 2026-04-25 17:39 | 45.74323 | 16.23106 | 5272 ft | 258 kts | 101° |
| 2026-04-25 17:40 | 45.73995 | 16.25648 | 6186 ft | 262 kts | 100° |
| 2026-04-25 17:40 | 45.73653 | 16.28227 | 7076 ft | 265 kts | 102° |
| 2026-04-25 17:40 | 45.72981 | 16.30705 | 7952 ft | 270 kts | 121° |
| 2026-04-25 17:40 | 45.71776 | 16.32774 | 8876 ft | 273 kts | 137° |
| 2026-04-25 17:41 | 45.70378 | 16.34629 | 9819 ft | 275 kts | 137° |
| 2026-04-25 17:41 | 45.68901 | 16.36389 | 10620 ft | 280 kts | 151° |
| 2026-04-25 17:41 | 45.67034 | 16.37095 | 11366 ft | 282 kts | 184° |
| 2026-04-25 17:41 | 45.65131 | 16.36313 | 11822 ft | 294 kts | 216° |
| 2026-04-25 17:42 | 45.63613 | 16.34325 | 12497 ft | 299 kts | 229° |
| 2026-04-25 17:42 | 45.62186 | 16.32133 | 13331 ft | 302 kts | 230° |
| 2026-04-25 17:42 | 45.60783 | 16.29926 | 14124 ft | 305 kts | 230° |
| 2026-04-25 17:42 | 45.59349 | 16.27668 | 14883 ft | 307 kts | 230° |
| 2026-04-25 17:43 | 45.57901 | 16.25412 | 15636 ft | 310 kts | 230° |
| 2026-04-25 17:43 | 45.56430 | 16.23145 | 16387 ft | 312 kts | 230° |
| 2026-04-25 17:43 | 45.54988 | 16.20787 | 16873 ft | 323 kts | 239° |
| 2026-04-25 17:43 | 45.53895 | 16.17890 | 17044 ft | 341 kts | 246° |
| 2026-04-25 17:44 | 45.52823 | 16.14814 | 17533 ft | 350 kts | 246° |
| 2026-04-25 17:44 | 45.51735 | 16.11681 | 18198 ft | 354 kts | 246° |
| 2026-04-25 17:44 | 45.50637 | 16.08530 | 18820 ft | 357 kts | 246° |
| 2026-04-25 17:44 | 45.49525 | 16.05352 | 19458 ft | 359 kts | 245° |
| 2026-04-25 17:45 | 45.48402 | 16.02164 | 19844 ft | 360 kts | 245° |
| 2026-04-25 17:45 | 45.48022 | 16.01089 | 19895 ft | 360 kts | 245° |
| 2026-04-25 17:45 | 45.46179 | 15.95908 | 19969 ft | 344 kts | 245° |
| 2026-04-25 17:45 | 45.45104 | 15.92890 | 19971 ft | 340 kts | 245° |
| 2026-04-25 17:46 | 45.44037 | 15.89888 | 19969 ft | 339 kts | 245° |
| 2026-04-25 17:46 | 45.42974 | 15.86885 | 19974 ft | 339 kts | 245° |
| 2026-04-25 17:46 | 45.41912 | 15.83884 | 19969 ft | 339 kts | 245° |
| 2026-04-25 17:46 | 45.40849 | 15.80885 | 19967 ft | 339 kts | 245° |
| 2026-04-25 17:47 | 45.39784 | 15.77888 | 19970 ft | 339 kts | 245° |
| 2026-04-25 17:47 | 45.38717 | 15.74897 | 19973 ft | 339 kts | 245° |
| 2026-04-25 17:47 | 45.37648 | 15.71903 | 19980 ft | 339 kts | 245° |
| 2026-04-25 17:47 | 45.36579 | 15.68913 | 19981 ft | 339 kts | 245° |
| 2026-04-25 17:48 | 45.34442 | 15.62932 | 19979 ft | 339 kts | 245° |
| 2026-04-25 17:48 | 45.33373 | 15.59937 | 19982 ft | 339 kts | 245° |
| 2026-04-25 17:48 | 45.32306 | 15.56948 | 19972 ft | 339 kts | 245° |
| 2026-04-25 17:49 | 45.31234 | 15.53962 | 19986 ft | 339 kts | 245° |
| 2026-04-25 17:49 | 45.30173 | 15.51021 | 19985 ft | 339 kts | 245° |
| 2026-04-25 17:49 | 45.29096 | 15.48039 | 19981 ft | 339 kts | 245° |
| 2026-04-25 17:49 | 45.28007 | 15.45023 | 19988 ft | 339 kts | 245° |
| 2026-04-25 17:50 | 45.27295 | 15.43048 | 19990 ft | 339 kts | 245° |
| 2026-04-25 17:50 | 45.25874 | 15.39104 | 19979 ft | 339 kts | 245° |
| 2026-04-25 17:50 | 45.24801 | 15.36128 | 19985 ft | 339 kts | 245° |
| 2026-04-25 17:50 | 45.23738 | 15.33188 | 19897 ft | 331 kts | 245° |
| 2026-04-25 17:51 | 45.22689 | 15.30298 | 19652 ft | 327 kts | 245° |
| 2026-04-25 17:51 | 45.21649 | 15.27432 | 19333 ft | 326 kts | 245° |
| 2026-04-25 17:51 | 45.20615 | 15.24579 | 19013 ft | 325 kts | 245° |
| 2026-04-25 17:51 | 45.19579 | 15.21728 | 18682 ft | 324 kts | 245° |
| 2026-04-25 17:52 | 45.18548 | 15.18895 | 18355 ft | 323 kts | 245° |
| 2026-04-25 17:52 | 45.18213 | 15.17976 | 18241 ft | 323 kts | 245° |
| 2026-04-25 17:52 | 45.16594 | 15.13188 | 17602 ft | 320 kts | 248° |
| 2026-04-25 17:52 | 45.15712 | 15.10292 | 17133 ft | 320 kts | 249° |
| 2026-04-25 17:53 | 45.14852 | 15.07384 | 16681 ft | 320 kts | 249° |
| 2026-04-25 17:53 | 45.14005 | 15.04507 | 16239 ft | 320 kts | 249° |
| 2026-04-25 17:53 | 45.13138 | 15.01595 | 15764 ft | 321 kts | 249° |
| 2026-04-25 17:53 | 45.12260 | 14.98681 | 15292 ft | 322 kts | 249° |
| 2026-04-25 17:54 | 45.11374 | 14.95772 | 14829 ft | 318 kts | 248° |
| 2026-04-25 17:54 | 45.10505 | 14.92927 | 14378 ft | 313 kts | 249° |
| 2026-04-25 17:54 | 45.09643 | 14.90116 | 13929 ft | 310 kts | 249° |
| 2026-04-25 17:54 | 45.08786 | 14.87320 | 13442 ft | 309 kts | 249° |
| 2026-04-25 17:55 | 45.07936 | 14.84546 | 12944 ft | 306 kts | 248° |
| 2026-04-25 17:55 | 45.07091 | 14.81793 | 12468 ft | 305 kts | 249° |
| 2026-04-25 17:55 | 45.06243 | 14.79038 | 12069 ft | 304 kts | 249° |
| 2026-04-25 17:55 | 45.05412 | 14.76344 | 11688 ft | 296 kts | 249° |
| 2026-04-25 17:56 | 45.04596 | 14.73696 | 11105 ft | 293 kts | 248° |
| 2026-04-25 17:56 | 45.03784 | 14.71067 | 10530 ft | 290 kts | 249° |
| 2026-04-25 17:56 | 45.02978 | 14.68459 | 9933 ft | 289 kts | 248° |
| 2026-04-25 17:56 | 45.02178 | 14.65872 | 9390 ft | 284 kts | 248° |
| 2026-04-25 17:57 | 45.01399 | 14.63365 | 9001 ft | 274 kts | 248° |
| 2026-04-25 17:57 | 45.00643 | 14.60937 | 8636 ft | 266 kts | 248° |
| 2026-04-25 17:57 | 44.99898 | 14.58544 | 8257 ft | 265 kts | 248° |
| 2026-04-25 17:57 | 44.99659 | 14.57774 | 8129 ft | 265 kts | 248° |
| 2026-04-25 17:58 | 44.98427 | 14.53800 | 7506 ft | 262 kts | 248° |
| 2026-04-25 17:58 | 44.97698 | 14.51445 | 7117 ft | 261 kts | 247° |
| 2026-04-25 17:58 | 44.96974 | 14.49114 | 6970 ft | 266 kts | 247° |
| 2026-04-25 17:58 | 44.96225 | 14.46701 | 6977 ft | 269 kts | 247° |
| 2026-04-25 17:59 | 44.95469 | 14.44275 | 6980 ft | 270 kts | 247° |
| 2026-04-25 17:59 | 44.94721 | 14.41882 | 6926 ft | 261 kts | 247° |
| 2026-04-25 17:59 | 44.93978 | 14.39507 | 6275 ft | 269 kts | 247° |
| 2026-04-25 17:59 | 44.93213 | 14.37061 | 5634 ft | 271 kts | 247° |
| 2026-04-25 18:00 | 44.92718 | 14.35481 | 5474 ft | 259 kts | 247° |
| 2026-04-25 18:00 | 44.91792 | 14.32540 | 5301 ft | 232 kts | 247° |
| 2026-04-25 18:00 | 44.91162 | 14.30535 | 5198 ft | 215 kts | 247° |
| 2026-04-25 18:00 | 44.90581 | 14.28686 | 5142 ft | 196 kts | 247° |
| 2026-04-25 18:01 | 44.90122 | 14.26941 | 4993 ft | 185 kts | 261° |
| 2026-04-25 18:01 | 44.90045 | 14.25771 | 4873 ft | 176 kts | 266° |
| 2026-04-25 18:01 | 44.89994 | 14.24104 | 4652 ft | 165 kts | 268° |
| 2026-04-25 18:01 | 44.89959 | 14.22535 | 4425 ft | 156 kts | 269° |
| 2026-04-25 18:02 | 44.89930 | 14.21051 | 4217 ft | 146 kts | 269° |
| 2026-04-25 18:02 | 44.89895 | 14.19242 | 3951 ft | 136 kts | 269° |
| 2026-04-25 18:02 | 44.89878 | 14.18345 | 3826 ft | 135 kts | 269° |
| 2026-04-25 18:02 | 44.89852 | 14.17023 | 3638 ft | 135 kts | 268° |
| 2026-04-25 18:03 | 44.89827 | 14.15720 | 3451 ft | 134 kts | 269° |
| 2026-04-25 18:03 | 44.89802 | 14.14407 | 3266 ft | 134 kts | 268° |
| 2026-04-25 18:03 | 44.89777 | 14.13097 | 3077 ft | 134 kts | 268° |
| 2026-04-25 18:03 | 44.89751 | 14.11788 | 2887 ft | 133 kts | 268° |
| 2026-04-25 18:04 | 44.89726 | 14.10484 | 2700 ft | 133 kts | 268° |
| 2026-04-25 18:04 | 44.89700 | 14.09182 | 2511 ft | 133 kts | 268° |
| 2026-04-25 18:04 | 44.89675 | 14.07881 | 2324 ft | 133 kts | 268° |
| 2026-04-25 18:04 | 44.89649 | 14.06581 | 2135 ft | 133 kts | 268° |
| 2026-04-25 18:05 | 44.89623 | 14.05280 | 1942 ft | 133 kts | 268° |
| 2026-04-25 18:05 | 44.89596 | 14.03980 | 1755 ft | 133 kts | 268° |
| 2026-04-25 18:05 | 44.89570 | 14.02675 | 1564 ft | 133 kts | 268° |
| 2026-04-25 18:05 | 44.89544 | 14.01375 | 1370 ft | 133 kts | 268° |
| 2026-04-25 18:06 | 44.89517 | 14.00075 | 1189 ft | 133 kts | 268° |
| 2026-04-25 18:06 | 44.89490 | 13.98774 | 1002 ft | 133 kts | 267° |
| 2026-04-25 18:06 | 44.89463 | 13.97474 | 822 ft | 133 kts | 268° |
| 2026-04-25 18:06 | 44.89440 | 13.96171 | 631 ft | 133 kts | 268° |
| 2026-04-25 18:07 | 44.89414 | 13.94862 | 431 ft | 134 kts | 266° |
| 2026-04-25 18:07 | 44.89380 | 13.93571 | 269 ft | 131 kts | 266° |
| 2026-04-25 18:07 | 44.89359 | 13.92453 | 214 ft | 91 kts | 267° |
| 2026-04-25 18:07 | 44.89357 | 13.91989 | 206 ft | 19 kts | 286° |
| 2026-04-25 18:08 | 44.89420 | 13.91935 | 209 ft | 8 kts | 356° |
| 2026-04-25 18:08 | 44.89458 | 13.91932 | 219 ft | 3 kts | 357° |
| 2026-04-25 18:08 | 44.89467 | 13.91932 | 219 ft | 0 kts | 357° |
| 2026-04-25 18:09 | 44.89487 | 13.91930 | 214 ft | 5 kts | 358° |
| 2026-04-25 18:09 | 44.89513 | 13.91929 | 215 ft | 2 kts | 357° |
| 2026-04-25 18:09 | 44.89522 | 13.91928 | 219 ft | 1 kts | 357° |
| 2026-04-25 18:09 | 44.89533 | 13.91928 | 220 ft | 3 kts | 358° |
| 2026-04-25 18:10 | 44.89568 | 13.91959 | 219 ft | 7 kts | 54° |
| 2026-04-25 18:10 | 44.89573 | 13.92017 | 218 ft | 6 kts | 92° |
| 2026-04-25 18:10 | 44.89572 | 13.92084 | 219 ft | 8 kts | 90° |
| 2026-04-25 18:10 | 44.89573 | 13.92163 | 219 ft | 9 kts | 88° |
| 2026-04-25 18:11 | 44.89575 | 13.92253 | 219 ft | 10 kts | 88° |
| 2026-04-25 18:11 | 44.89578 | 13.92358 | 219 ft | 11 kts | 88° |
| 2026-04-25 18:11 | 44.89604 | 13.92457 | 219 ft | 12 kts | 22° |
| 2026-04-25 18:11 | 44.89672 | 13.92453 | 227 ft | 7 kts | 355° |
| 2026-04-25 18:12 | 44.89691 | 13.92461 | 219 ft | 0 kts | 42° |
| 2026-04-25 18:12 | 44.89696 | 13.92480 | 222 ft | 4 kts | 68° |
| 2026-04-25 18:12 | 44.89728 | 13.92528 | 219 ft | 6 kts | 345° |
| 2026-04-25 18:12 | 44.89739 | 13.92509 | 219 ft | 2 kts | 306° |
| 2026-04-25 18:13 | 44.89741 | 13.92506 | 219 ft | 0 kts | 309° |